Time;durP1;ratioP1;P1;durP2;ratioP2;P2;SDS_P1;SDS_P2;PMS_P1;PMS_P2;Temp;Humidity;BMP_temperature;BMP_pressure;BME280_temperature;BME280_humidity;BME280_pressure;Samples;Min_cycle;Max_cycle;Signal;HPM_P1;HPM_P2
2022/05/30 00:01:07;;;;;;;8.55;2.55;;;;;;;;;;5091380;28;20044;-70
2022/05/30 00:03:33;;;;;;;7.65;2.33;;;;;;;;;;5100721;28;20048;-70
2022/05/30 00:05:59;;;;;;;7.03;2.30;;;;;;;;;;5098817;28;20402;-69
2022/05/30 00:08:26;;;;;;;7.22;1.98;;;;;;;;;;5092835;28;20062;-69
2022/05/30 00:10:53;;;;;;;9.32;2.60;;;;;;;;;;5104922;28;20039;-70
2022/05/30 00:13:19;;;;;;;8.70;2.58;;;;;;;;;;5094955;28;20110;-69
2022/05/30 00:15:45;;;;;;;8.88;2.45;;;;;;;;;;5080212;28;20040;-69
2022/05/30 00:18:12;;;;;;;7.00;2.70;;;;;;;;;;5099155;28;20594;-69
2022/05/30 00:20:42;;;;;;;5.95;2.30;;;;;;;;;;5103845;28;20047;-69
2022/05/30 00:23:09;;;;;;;8.57;2.60;;;;;;;;;;5093744;28;20558;-69
2022/05/30 00:25:35;;;;;;;7.07;2.25;;;;;;;;;;5098405;28;20039;-69
2022/05/30 00:28:01;;;;;;;8.27;2.60;;;;;;;;;;5103132;28;20032;-69
2022/05/30 00:30:27;;;;;;;8.23;2.45;;;;;;;;;;5091988;28;20792;-69
2022/05/30 00:32:53;;;;;;;5.15;2.33;;;;;;;;;;5101876;28;20044;-69
2022/05/30 00:35:19;;;;;;;8.77;2.92;;;;;;;;;;5098277;28;20101;-69
2022/05/30 00:37:45;;;;;;;10.13;2.95;;;;;;;;;;5095379;28;20056;-69
2022/05/30 00:40:12;;;;;;;7.25;2.67;;;;;;;;;;5104749;28;20179;-69
2022/05/30 00:42:38;;;;;;;6.35;2.17;;;;;;;;;;5091676;28;20071;-70
2022/05/30 00:45:04;;;;;;;5.22;2.38;;;;;;;;;;5098672;28;20419;-70
2022/05/30 00:47:30;;;;;;;9.07;2.65;;;;;;;;;;5099917;28;20044;-69
2022/05/30 00:49:57;;;;;;;7.63;2.92;;;;;;;;;;5092080;28;20044;-69
2022/05/30 00:52:26;;;;;;;5.70;2.33;;;;;;;;;;5106899;28;20036;-70
2022/05/30 00:54:54;;;;;;;10.98;2.72;;;;;;;;;;5099560;28;20092;-70
2022/05/30 00:57:21;;;;;;;9.82;3.13;;;;;;;;;;5098622;28;20475;-69
2022/05/30 00:59:59;;;;;;;10.18;3.15;;;;;;;;;;5107178;28;20047;-70
2022/05/30 01:02:26;;;;;;;9.07;2.92;;;;;;;;;;5096417;28;20051;-69
2022/05/30 01:07:40;;;;;;;6.25;2.60;;;;;;;;;;5107417;28;20052;-69
2022/05/30 01:10:07;;;;;;;8.50;2.60;;;;;;;;;;5094777;28;20051;-69
2022/05/30 01:12:54;;;;;;;6.93;2.63;;;;;;;;;;5102697;28;20044;-69
2022/05/30 01:15:22;;;;;;;8.02;2.47;;;;;;;;;;5105678;28;20510;-69
2022/05/30 01:17:54;;;;;;;10.68;3.05;;;;;;;;;;5094039;28;20067;-69
2022/05/30 01:20:25;;;;;;;6.40;2.78;;;;;;;;;;5085779;28;20117;-69
2022/05/30 01:22:59;;;;;;;9.32;2.70;;;;;;;;;;5103026;28;20049;-69
2022/05/30 01:25:35;;;;;;;7.80;2.67;;;;;;;;;;5094439;28;20044;-70
2022/05/30 01:28:14;;;;;;;7.35;2.53;;;;;;;;;;5104623;28;20483;-69
2022/05/30 01:30:40;;;;;;;5.32;2.20;;;;;;;;;;5102217;28;20513;-69
2022/05/30 01:33:07;;;;;;;5.90;2.60;;;;;;;;;;5092155;28;20040;-69
2022/05/30 01:35:33;;;;;;;7.93;2.67;;;;;;;;;;5106629;28;20510;-69
2022/05/30 01:37:59;;;;;;;8.90;2.90;;;;;;;;;;5096887;28;20052;-69
2022/05/30 01:40:26;;;;;;;8.35;3.08;;;;;;;;;;5098959;28;20132;-70
2022/05/30 01:42:53;;;;;;;7.85;2.88;;;;;;;;;;5105453;28;20530;-70
2022/05/30 01:45:20;;;;;;;8.18;2.97;;;;;;;;;;5094839;28;20044;-70
2022/05/30 01:47:46;;;;;;;8.00;2.80;;;;;;;;;;5103175;28;20040;-69
2022/05/30 01:50:13;;;;;;;6.88;2.80;;;;;;;;;;5101844;28;20232;-69
2022/05/30 01:52:39;;;;;;;9.82;2.83;;;;;;;;;;5096712;28;20031;-69
2022/05/30 01:55:06;;;;;;;8.13;2.60;;;;;;;;;;5106407;28;20031;-70
2022/05/30 01:57:32;;;;;;;7.82;2.78;;;;;;;;;;5096001;28;20414;-70
2022/05/30 01:59:58;;;;;;;6.55;2.67;;;;;;;;;;5083546;28;20044;-69
2022/05/30 02:02:24;;;;;;;8.75;3.58;;;;;;;;;;5102289;28;20047;-70
2022/05/30 02:04:52;;;;;;;7.78;3.40;;;;;;;;;;5093174;28;20048;-70
2022/05/30 02:07:19;;;;;;;8.77;3.30;;;;;;;;;;5104053;28;20059;-70
2022/05/30 02:09:45;;;;;;;6.53;2.83;;;;;;;;;;5099342;28;20035;-70
2022/05/30 02:12:11;;;;;;;6.70;3.03;;;;;;;;;;5096011;28;20043;-70
2022/05/30 02:14:38;;;;;;;8.52;2.90;;;;;;;;;;5105803;28;20042;-70
2022/05/30 02:17:06;;;;;;;7.88;3.10;;;;;;;;;;5094693;28;20043;-70
2022/05/30 02:19:37;;;;;;;8.90;3.38;;;;;;;;;;5100142;28;20075;-69
2022/05/30 02:22:04;;;;;;;6.80;3.22;;;;;;;;;;5103263;28;20062;-69
2022/05/30 02:24:30;;;;;;;8.52;2.83;;;;;;;;;;5094260;28;20055;-70
2022/05/30 02:26:56;;;;;;;10.55;3.13;;;;;;;;;;5104115;28;20407;-70
2022/05/30 02:29:22;;;;;;;7.72;3.30;;;;;;;;;;5088921;28;20040;-69
2022/05/30 02:31:48;;;;;;;8.57;2.80;;;;;;;;;;5103615;28;20047;-70
2022/05/30 02:36:59;;;;;;;6.20;2.95;;;;;;;;;;5101918;28;20515;-69
2022/05/30 02:39:26;;;;;;;5.32;2.42;;;;;;;;;;5100316;28;20495;-70
2022/05/30 02:41:53;;;;;;;7.28;2.90;;;;;;;;;;5095404;28;20036;-69
2022/05/30 02:44:20;;;;;;;8.80;3.08;;;;;;;;;;5106577;28;20055;-69
2022/05/30 02:47:06;;;;;;;6.80;3.13;;;;;;;;;;5095869;28;20039;-69
2022/05/30 02:49:33;;;;;;;7.03;3.00;;;;;;;;;;5109347;28;20197;-69
2022/05/30 02:51:59;;;;;;;6.47;2.90;;;;;;;;;;5093405;28;20063;-69
2022/05/30 02:54:25;;;;;;;6.15;2.60;;;;;;;;;;5103793;28;20032;-69
2022/05/30 02:56:53;;;;;;;5.65;2.60;;;;;;;;;;5097536;28;20078;-69
2022/05/30 02:59:20;;;;;;;6.47;3.17;;;;;;;;;;5095709;28;20116;-70
2022/05/30 03:01:46;;;;;;;6.35;2.80;;;;;;;;;;5105046;28;20036;-69
2022/05/30 03:04:13;;;;;;;7.07;3.05;;;;;;;;;;5092995;28;20092;-69
2022/05/30 03:06:39;;;;;;;8.38;3.03;;;;;;;;;;5100105;28;20415;-69
2022/05/30 03:09:06;;;;;;;8.30;2.75;;;;;;;;;;5101345;28;20260;-69
2022/05/30 03:11:33;;;;;;;5.60;2.55;;;;;;;;;;5091814;28;20052;-70
2022/05/30 03:13:59;;;;;;;7.30;3.03;;;;;;;;;;5104081;28;20039;-69
2022/05/30 03:16:26;;;;;;;7.05;2.80;;;;;;;;;;5096194;28;20067;-70
2022/05/30 03:18:53;;;;;;;7.32;2.55;;;;;;;;;;5096071;28;20036;-69
2022/05/30 03:21:19;;;;;;;6.20;2.50;;;;;;;;;;5089469;28;20047;-70
2022/05/30 03:23:45;;;;;;;7.22;2.70;;;;;;;;;;5104680;28;20127;-69
2022/05/30 03:26:11;;;;;;;6.13;3.13;;;;;;;;;;5095439;28;20104;-70
2022/05/30 03:28:38;;;;;;;5.90;2.67;;;;;;;;;;5079662;28;20050;-70
2022/05/30 03:31:07;;;;;;;6.60;2.60;;;;;;;;;;5103427;28;20043;-70
2022/05/30 03:33:33;;;;;;;6.07;2.50;;;;;;;;;;5091964;28;20047;-69
2022/05/30 03:36:00;;;;;;;5.82;2.47;;;;;;;;;;5101033;28;20050;-69
2022/05/30 03:38:26;;;;;;;6.50;2.30;;;;;;;;;;5082126;28;20054;-69
2022/05/30 03:40:52;;;;;;;4.32;2.28;;;;;;;;;;5092628;28;20346;-69
2022/05/30 03:43:19;;;;;;;7.55;2.80;;;;;;;;;;5104415;28;20050;-69
2022/05/30 03:45:45;;;;;;;7.63;3.13;;;;;;;;;;5094450;28;20547;-69
2022/05/30 03:48:12;;;;;;;8.30;2.80;;;;;;;;;;5097366;28;20413;-69
2022/05/30 03:50:39;;;;;;;8.43;2.58;;;;;;;;;;5102402;28;20773;-69
2022/05/30 03:53:05;;;;;;;6.40;2.70;;;;;;;;;;5074296;28;20047;-70
2022/05/30 03:55:34;;;;;;;4.97;2.42;;;;;;;;;;5101529;28;20051;-69
2022/05/30 03:58:10;;;;;;;7.68;2.50;;;;;;;;;;5098040;28;20044;-69
2022/05/30 04:00:38;;;;;;;9.57;3.20;;;;;;;;;;5092308;28;20652;-69
2022/05/30 04:03:04;;;;;;;6.10;2.75;;;;;;;;;;5101723;28;20384;-69
2022/05/30 04:05:31;;;;;;;7.07;2.78;;;;;;;;;;5074762;28;20470;-69
2022/05/30 04:07:57;;;;;;;8.05;2.95;;;;;;;;;;5099015;28;20116;-69
2022/05/30 04:10:23;;;;;;;5.78;2.60;;;;;;;;;;5093604;28;20044;-69
2022/05/30 04:13:04;;;;;;;7.60;2.63;;;;;;;;;;5103783;28;20384;-70
2022/05/30 04:15:30;;;;;;;7.10;2.97;;;;;;;;;;5096287;28;20075;-70
2022/05/30 04:17:57;;;;;;;7.78;3.17;;;;;;;;;;5095953;28;20364;-70
2022/05/30 04:20:23;;;;;;;9.85;3.65;;;;;;;;;;5103867;28;20491;-70
2022/05/30 04:22:49;;;;;;;5.88;2.90;;;;;;;;;;5092517;28;20096;-70
2022/05/30 04:25:15;;;;;;;5.80;3.13;;;;;;;;;;5102190;28;20402;-69
2022/05/30 04:27:41;;;;;;;6.50;3.17;;;;;;;;;;5103619;28;20123;-70
2022/05/30 04:30:08;;;;;;;7.68;3.53;;;;;;;;;;5095543;28;20051;-69
2022/05/30 04:32:36;;;;;;;8.90;3.15;;;;;;;;;;5107898;28;20089;-70
2022/05/30 04:35:03;;;;;;;7.65;3.03;;;;;;;;;;5099276;28;20036;-70
2022/05/30 04:37:30;;;;;;;6.22;3.03;;;;;;;;;;5099388;28;20055;-70
2022/05/30 04:39:56;;;;;;;8.13;2.72;;;;;;;;;;5107362;28;20546;-70
2022/05/30 04:42:23;;;;;;;6.95;2.88;;;;;;;;;;5095059;28;20487;-69
2022/05/30 04:44:49;;;;;;;7.18;3.45;;;;;;;;;;5104038;28;20052;-70
2022/05/30 04:47:15;;;;;;;5.97;2.88;;;;;;;;;;5102191;28;20123;-70
2022/05/30 04:49:42;;;;;;;7.18;3.35;;;;;;;;;;5096504;28;20093;-69
2022/05/30 04:52:08;;;;;;;7.85;3.58;;;;;;;;;;5107059;28;20566;-70
2022/05/30 04:54:34;;;;;;;6.43;3.03;;;;;;;;;;5097405;28;20074;-70
2022/05/30 04:57:00;;;;;;;6.60;2.90;;;;;;;;;;5101898;28;20042;-70
2022/05/30 04:59:27;;;;;;;7.05;2.80;;;;;;;;;;5106929;28;20043;-69
2022/05/30 05:01:55;;;;;;;6.63;3.38;;;;;;;;;;5094615;28;20753;-70
2022/05/30 05:04:21;;;;;;;7.65;3.03;;;;;;;;;;5111622;28;20402;-70
2022/05/30 05:06:49;;;;;;;6.57;3.00;;;;;;;;;;5111214;28;20039;-70
2022/05/30 05:09:18;;;;;;;7.55;2.88;;;;;;;;;;5079604;28;20040;-69
2022/05/30 05:11:48;;;;;;;6.47;2.88;;;;;;;;;;5106831;28;20044;-69
2022/05/30 05:14:16;;;;;;;6.25;2.83;;;;;;;;;;5097194;28;20039;-70
2022/05/30 05:16:42;;;;;;;6.65;3.08;;;;;;;;;;5100281;28;20478;-70
2022/05/30 05:19:09;;;;;;;6.80;3.63;;;;;;;;;;5093277;28;20255;-70
2022/05/30 05:21:36;;;;;;;7.70;3.15;;;;;;;;;;5110796;28;20044;-74
2022/05/30 05:24:04;;;;;;;7.13;3.30;;;;;;;;;;5106531;28;20051;-71
2022/05/30 05:26:30;;;;;;;7.05;3.17;;;;;;;;;;5092493;28;20040;-75
2022/05/30 05:28:57;;;;;;;8.85;3.10;;;;;;;;;;5092072;28;20044;-74
2022/05/30 05:31:25;;;;;;;7.50;3.40;;;;;;;;;;5077153;28;20044;-72
2022/05/30 05:33:52;;;;;;;6.50;3.20;;;;;;;;;;5106083;28;20043;-72
2022/05/30 05:36:20;;;;;;;8.38;3.65;;;;;;;;;;5092615;28;20127;-81
2022/05/30 05:38:46;;;;;;;8.80;3.33;;;;;;;;;;5075931;28;20055;-78
2022/05/30 05:41:12;;;;;;;7.70;3.30;;;;;;;;;;5092786;28;20519;-78
2022/05/30 05:43:38;;;;;;;8.30;3.63;;;;;;;;;;5075872;28;20051;-80
2022/05/30 05:46:04;;;;;;;9.70;3.20;;;;;;;;;;5093288;28;20099;-82
2022/05/30 05:48:31;;;;;;;7.45;3.40;;;;;;;;;;5076558;28;20040;-83
2022/05/30 05:51:04;;;;;;;8.98;3.45;;;;;;;;;;5093187;28;20044;-81
2022/05/30 05:53:30;;;;;;;8.73;3.20;;;;;;;;;;5092735;28;20085;-80
2022/05/30 05:55:56;;;;;;;6.40;3.03;;;;;;;;;;5100470;28;20035;-81
2022/05/30 05:58:22;;;;;;;6.78;2.85;;;;;;;;;;5098025;28;20050;-74
2022/05/30 06:00:48;;;;;;;8.05;3.35;;;;;;;;;;5109464;28;20039;-82
2022/05/30 06:03:15;;;;;;;6.75;3.45;;;;;;;;;;5094951;28;20035;-73
2022/05/30 06:05:41;;;;;;;7.35;2.90;;;;;;;;;;5111845;28;20079;-73
2022/05/30 06:09:03;;;;;;;7.43;3.20;;;;;;;;;;5149398;27;20446;-73
2022/05/30 06:11:30;;;;;;;8.30;2.85;;;;;;;;;;5120596;28;20073;-74
2022/05/30 06:13:57;;;;;;;6.75;2.72;;;;;;;;;;5120669;27;20031;-73
2022/05/30 06:16:24;;;;;;;8.15;2.90;;;;;;;;;;5115975;28;20089;-73
2022/05/30 06:18:52;;;;;;;7.47;3.10;;;;;;;;;;5089592;27;20398;-73
2022/05/30 06:21:18;;;;;;;7.07;2.53;;;;;;;;;;5089665;28;20061;-73
2022/05/30 06:23:46;;;;;;;5.68;2.60;;;;;;;;;;5103919;28;20067;-73
2022/05/30 06:26:13;;;;;;;7.72;2.85;;;;;;;;;;5091698;28;20035;-73
2022/05/30 06:28:39;;;;;;;5.70;2.30;;;;;;;;;;5107492;27;20043;-73
2022/05/30 06:31:16;;;;;;;7.40;2.40;;;;;;;;;;5106180;28;20065;-73
2022/05/30 06:33:43;;;;;;;6.70;2.55;;;;;;;;;;5104634;28;20608;-73
2022/05/30 06:36:12;;;;;;;6.53;2.65;;;;;;;;;;5105072;27;20039;-73
2022/05/30 06:38:38;;;;;;;6.57;2.40;;;;;;;;;;5107952;28;20035;-73
2022/05/30 06:41:11;;;;;;;4.97;1.95;;;;;;;;;;5083368;28;20039;-73
2022/05/30 06:43:37;;;;;;;7.18;2.10;;;;;;;;;;5122347;28;20036;-74
2022/05/30 06:46:04;;;;;;;3.95;2.00;;;;;;;;;;5107234;27;20039;-73
2022/05/30 06:48:31;;;;;;;5.50;1.80;;;;;;;;;;5096246;27;20126;-73
2022/05/30 06:50:57;;;;;;;5.93;2.10;;;;;;;;;;5108389;27;20122;-74
2022/05/30 06:53:23;;;;;;;5.65;1.85;;;;;;;;;;5123737;27;20034;-73
2022/05/30 06:55:51;;;;;;;5.03;1.88;;;;;;;;;;5108954;28;20035;-73
2022/05/30 06:58:18;;;;;;;5.45;1.90;;;;;;;;;;5109317;28;20035;-74
2022/05/30 07:00:45;;;;;;;4.95;2.15;;;;;;;;;;5109112;28;20046;-73
2022/05/30 07:03:12;;;;;;;10.20;2.40;;;;;;;;;;5109077;28;20135;-74
2022/05/30 07:05:38;;;;;;;4.35;2.15;;;;;;;;;;5107860;27;20719;-73
2022/05/30 07:08:05;;;;;;;5.03;2.20;;;;;;;;;;5109948;28;20492;-74
2022/05/30 07:10:31;;;;;;;5.88;1.95;;;;;;;;;;5100372;28;20522;-74
2022/05/30 07:12:58;;;;;;;4.15;1.80;;;;;;;;;;5088933;28;20036;-73
2022/05/30 07:15:25;;;;;;;5.15;2.10;;;;;;;;;;5096308;28;20058;-73
2022/05/30 07:17:51;;;;;;;4.82;1.92;;;;;;;;;;5103206;28;20550;-74
2022/05/30 07:20:18;;;;;;;4.20;1.40;;;;;;;;;;5072845;28;20119;-74
2022/05/30 07:22:44;;;;;;;4.75;1.60;;;;;;;;;;5082371;28;20135;-74
2022/05/30 07:25:11;;;;;;;2.50;1.38;;;;;;;;;;5088985;28;20047;-74
2022/05/30 07:27:37;;;;;;;2.63;0.90;;;;;;;;;;5088951;28;20035;-73
2022/05/30 07:30:04;;;;;;;5.28;1.40;;;;;;;;;;5089356;28;20032;-74
2022/05/30 07:32:32;;;;;;;3.45;1.08;;;;;;;;;;5089210;28;20094;-75
2022/05/30 07:34:59;;;;;;;3.95;1.20;;;;;;;;;;5089436;28;20067;-74
2022/05/30 07:37:25;;;;;;;2.75;1.00;;;;;;;;;;5092176;28;20499;-74
2022/05/30 07:39:51;;;;;;;2.95;1.40;;;;;;;;;;5077845;28;20121;-73
2022/05/30 07:42:17;;;;;;;3.97;1.30;;;;;;;;;;5076304;28;20043;-74
2022/05/30 07:44:43;;;;;;;3.78;1.20;;;;;;;;;;5095339;28;20044;-73
2022/05/30 07:47:11;;;;;;;3.47;1.10;;;;;;;;;;5097282;28;20080;-76
2022/05/30 07:49:38;;;;;;;3.72;1.48;;;;;;;;;;5077076;28;20032;-78
2022/05/30 07:52:04;;;;;;;2.50;1.20;;;;;;;;;;5091211;28;20036;-77
2022/05/30 07:54:30;;;;;;;2.47;0.90;;;;;;;;;;5081839;28;20033;-76
2022/05/30 07:56:57;;;;;;;3.80;1.45;;;;;;;;;;5106491;28;20134;-76
2022/05/30 07:59:23;;;;;;;1.88;1.10;;;;;;;;;;5080510;28;20042;-74
2022/05/30 08:01:49;;;;;;;4.28;1.23;;;;;;;;;;5112047;28;20039;-77
2022/05/30 08:04:16;;;;;;;2.95;1.23;;;;;;;;;;5097957;28;20035;-75
2022/05/30 08:06:42;;;;;;;3.00;1.10;;;;;;;;;;5090364;28;20491;-76
2022/05/30 08:09:08;;;;;;;3.10;1.10;;;;;;;;;;5094194;28;20055;-72
2022/05/30 08:11:53;;;;;;;6.97;1.40;;;;;;;;;;5092802;28;20431;-82
2022/05/30 08:14:20;;;;;;;2.70;1.10;;;;;;;;;;5083990;28;20046;-75
2022/05/30 08:16:46;;;;;;;3.38;1.30;;;;;;;;;;5111945;27;20088;-77
2022/05/30 08:19:13;;;;;;;4.20;1.35;;;;;;;;;;5106611;27;20035;-77
2022/05/30 08:21:39;;;;;;;4.55;1.25;;;;;;;;;;5094940;28;20090;-85
2022/05/30 08:24:17;;;;;;;4.43;1.48;;;;;;;;;;5092384;28;20119;-77
2022/05/30 08:26:43;;;;;;;3.60;1.08;;;;;;;;;;5096447;27;20036;-80
2022/05/30 08:29:10;;;;;;;2.15;1.10;;;;;;;;;;5104460;28;20471;-77
2022/05/30 08:31:36;;;;;;;2.95;1.10;;;;;;;;;;5103804;27;20390;-77
2022/05/30 08:34:02;;;;;;;2.72;1.15;;;;;;;;;;5078944;28;20048;-78
2022/05/30 08:36:29;;;;;;;4.65;1.27;;;;;;;;;;5079152;27;20505;-77
2022/05/30 08:41:46;;;;;;;3.22;1.40;;;;;;;;;;5104061;28;20045;-77
2022/05/30 08:41:47;;;;;;;4.25;1.60;;;;;;;;;;5106287;27;20046;-76
2022/05/30 08:44:13;;;;;;;2.92;1.42;;;;;;;;;;5095373;27;20070;-76
2022/05/30 08:46:56;;;;;;;3.70;1.63;;;;;;;;;;5105691;28;20040;-77
2022/05/30 08:49:27;;;;;;;4.28;1.33;;;;;;;;;;5087799;27;20122;-76
2022/05/30 08:52:09;;;;;;;3.13;1.17;;;;;;;;;;5078407;27;20032;-76
2022/05/30 08:54:54;;;;;;;4.88;1.33;;;;;;;;;;5092677;28;20031;-82
2022/05/30 08:57:26;;;;;;;2.17;1.00;;;;;;;;;;5096403;28;20036;-82
2022/05/30 08:59:58;;;;;;;3.83;1.40;;;;;;;;;;5083841;27;20168;-82
2022/05/30 09:02:30;;;;;;;4.32;1.50;;;;;;;;;;5084983;27;20521;-82
2022/05/30 09:05:06;;;;;;;2.85;1.13;;;;;;;;;;5099754;28;20491;-83
2022/05/30 09:07:36;;;;;;;3.45;1.20;;;;;;;;;;5085251;28;20502;-80
2022/05/30 09:10:07;;;;;;;3.70;1.00;;;;;;;;;;5084145;28;20113;-82
2022/05/30 09:12:33;;;;;;;6.60;0.90;;;;;;;;;;5099520;27;20035;-80
2022/05/30 09:15:03;;;;;;;1.88;1.05;;;;;;;;;;5092247;28;20046;-79
2022/05/30 09:17:35;;;;;;;0.90;0.80;;;;;;;;;;5118052;27;20134;-80
2022/05/30 09:20:04;;;;;;;0.50;0.50;;;;;;;;;;5105692;28;20081;-80
2022/05/30 09:22:31;;;;;;;1.33;0.55;;;;;;;;;;5102519;27;20114;-79
2022/05/30 09:27:43;;;;;;;0.85;0.50;;;;;;;;;;5115120;27;20108;-80
2022/05/30 09:30:11;;;;;;;1.33;0.50;;;;;;;;;;5082445;27;20406;-80
2022/05/30 09:32:46;;;;;;;0.68;0.30;;;;;;;;;;5081145;28;20051;-80
2022/05/30 09:35:28;;;;;;;1.08;0.52;;;;;;;;;;5073551;28;20611;-79
2022/05/30 09:38:14;;;;;;;1.95;0.55;;;;;;;;;;5080701;27;20086;-80
2022/05/30 09:40:47;;;;;;;2.30;0.80;;;;;;;;;;5089330;28;20048;-79
2022/05/30 09:43:26;;;;;;;1.15;0.70;;;;;;;;;;5110922;27;20031;-79
2022/05/30 09:45:52;;;;;;;4.18;0.90;;;;;;;;;;5104661;28;20426;-80
2022/05/30 09:48:19;;;;;;;1.05;0.60;;;;;;;;;;5089471;28;20071;-78
2022/05/30 09:50:50;;;;;;;1.77;0.60;;;;;;;;;;5076162;28;20091;-80
2022/05/30 09:53:52;;;;;;;1.10;0.50;;;;;;;;;;5077318;28;20046;-79
2022/05/30 09:56:19;;;;;;;1.25;0.50;;;;;;;;;;5047636;28;20033;-79
2022/05/30 09:58:45;;;;;;;0.60;0.50;;;;;;;;;;5059564;28;20367;-79
2022/05/30 10:01:12;;;;;;;0.93;0.63;;;;;;;;;;5085430;28;20062;-79
2022/05/30 10:03:40;;;;;;;1.98;0.73;;;;;;;;;;5076519;28;20032;-79
2022/05/30 10:06:17;;;;;;;1.92;0.73;;;;;;;;;;5093119;28;20515;-78
2022/05/30 10:08:44;;;;;;;2.08;0.68;;;;;;;;;;5073180;28;20044;-79
2022/05/30 10:11:11;;;;;;;1.88;0.63;;;;;;;;;;5073618;28;20465;-79
2022/05/30 10:13:41;;;;;;;1.48;0.70;;;;;;;;;;5085305;28;20399;-79
2022/05/30 10:16:11;;;;;;;2.10;0.80;;;;;;;;;;5079579;28;20039;-79
2022/05/30 10:18:51;;;;;;;1.50;0.70;;;;;;;;;;5098318;28;20061;-78
2022/05/30 10:21:29;;;;;;;1.75;0.80;;;;;;;;;;5068126;28;20240;-79
2022/05/30 10:29:50;;;;;;;3.80;0.80;;;;;;;;;;5084037;28;20697;-78
2022/05/30 10:32:25;;;;;;;2.20;0.85;;;;;;;;;;5084487;28;20040;-78
2022/05/30 10:35:00;;;;;;;2.00;0.80;;;;;;;;;;5088418;28;20043;-78
2022/05/30 10:37:45;;;;;;;1.88;0.80;;;;;;;;;;5085654;28;20032;-78
2022/05/30 10:40:11;;;;;;;2.92;1.00;;;;;;;;;;5068511;28;20082;-78
2022/05/30 10:42:37;;;;;;;2.85;0.80;;;;;;;;;;5091695;28;20032;-78
2022/05/30 10:45:16;;;;;;;1.83;0.63;;;;;;;;;;5096114;28;20040;-78
2022/05/30 10:47:45;;;;;;;2.75;0.70;;;;;;;;;;5093700;28;20415;-78
2022/05/30 10:50:18;;;;;;;1.92;0.70;;;;;;;;;;5096587;28;20070;-78
2022/05/30 10:52:57;;;;;;;1.58;0.60;;;;;;;;;;5088420;28;20538;-78
2022/05/30 10:55:28;;;;;;;0.75;0.50;;;;;;;;;;5092433;28;20498;-78
2022/05/30 10:58:00;;;;;;;1.83;0.60;;;;;;;;;;5082967;28;20050;-78
2022/05/30 11:00:29;;;;;;;1.73;0.70;;;;;;;;;;5099850;28;20049;-79
2022/05/30 11:02:58;;;;;;;3.70;0.70;;;;;;;;;;5103312;28;20046;-78
2022/05/30 11:05:27;;;;;;;1.33;0.60;;;;;;;;;;5101186;28;20036;-80
2022/05/30 11:08:11;;;;;;;0.88;0.50;;;;;;;;;;5092392;28;20090;-79
2022/05/30 11:10:46;;;;;;;1.35;0.70;;;;;;;;;;5075535;28;20548;-79
2022/05/30 11:13:32;;;;;;;1.00;0.60;;;;;;;;;;5095854;28;20041;-79
2022/05/30 11:16:01;;;;;;;4.22;0.70;;;;;;;;;;5078189;28;20234;-79
2022/05/30 11:18:42;;;;;;;2.08;0.70;;;;;;;;;;5076269;28;20040;-79
2022/05/30 11:21:27;;;;;;;4.32;0.90;;;;;;;;;;5069043;28;20040;-80
2022/05/30 11:23:53;;;;;;;1.42;0.60;;;;;;;;;;5090910;28;20082;-81
2022/05/30 11:26:38;;;;;;;1.65;0.65;;;;;;;;;;5100250;28;20074;-81
2022/05/30 11:29:40;;;;;;;2.25;0.73;;;;;;;;;;5090628;28;20038;-80
2022/05/30 11:32:13;;;;;;;2.22;0.70;;;;;;;;;;5025145;28;20124;-79
2022/05/30 11:34:58;;;;;;;1.45;0.75;;;;;;;;;;5064792;28;20036;-78
2022/05/30 11:37:39;;;;;;;3.20;0.90;;;;;;;;;;5086833;28;20480;-78
2022/05/30 11:40:05;;;;;;;2.17;0.75;;;;;;;;;;5073373;28;20116;-89
2022/05/30 11:42:35;;;;;;;1.90;0.88;;;;;;;;;;5089926;28;20031;-82
2022/05/30 11:45:21;;;;;;;1.77;0.80;;;;;;;;;;5077246;28;20040;-86
2022/05/30 11:48:00;;;;;;;1.23;0.75;;;;;;;;;;5071995;28;20094;-80
2022/05/30 11:50:34;;;;;;;5.13;1.17;;;;;;;;;;5068950;28;20396;-80
2022/05/30 11:53:18;;;;;;;2.88;0.98;;;;;;;;;;5079494;28;20169;-89
2022/05/30 11:55:51;;;;;;;1.13;0.88;;;;;;;;;;5096868;28;20061;-84
2022/05/30 11:58:29;;;;;;;1.88;0.73;;;;;;;;;;5078003;28;20082;-82
2022/05/30 12:00:56;;;;;;;2.38;1.10;;;;;;;;;;5102256;28;20118;-81
2022/05/30 12:03:41;;;;;;;1.70;0.82;;;;;;;;;;5096384;28;20043;-79
2022/05/30 12:06:26;;;;;;;1.83;1.02;;;;;;;;;;5105653;28;20054;-80
2022/05/30 12:09:02;;;;;;;3.92;0.82;;;;;;;;;;5071357;28;20044;-87
2022/05/30 12:11:35;;;;;;;1.70;0.80;;;;;;;;;;5091282;28;20036;-84
2022/05/30 12:14:17;;;;;;;1.65;0.80;;;;;;;;;;5075727;28;20040;-90
2022/05/30 12:16:52;;;;;;;3.08;1.13;;;;;;;;;;5094510;28;20511;-87
2022/05/30 12:25:26;;;;;;;4.28;1.27;;;;;;;;;;5092955;28;20044;-85
2022/05/30 12:27:52;;;;;;;;;;;;;;;;;;5075645;28;20066;-86
2022/05/30 12:30:37;;;;;;;2.03;1.02;;;;;;;;;;5075520;28;19916;-76
2022/05/30 12:33:22;;;;;;;2.08;1.00;;;;;;;;;;5093885;28;20035;-82
2022/05/30 12:35:53;;;;;;;3.33;1.13;;;;;;;;;;5079198;28;20125;-79
2022/05/30 12:38:20;;;;;;;1.38;1.00;;;;;;;;;;5071770;28;20036;-77
2022/05/30 12:40:54;;;;;;;4.20;1.23;;;;;;;;;;5094552;28;20491;-82
2022/05/30 12:43:23;;;;;;;1.00;0.82;;;;;;;;;;5091010;28;20052;-78
2022/05/30 12:45:56;;;;;;;2.50;1.17;;;;;;;;;;5090725;28;20039;-77
2022/05/30 12:48:28;;;;;;;1.70;1.00;;;;;;;;;;5109455;28;20131;-81
2022/05/30 12:50:54;;;;;;;3.00;0.90;;;;;;;;;;5094500;28;20398;-81
2022/05/30 12:53:22;;;;;;;2.67;1.10;;;;;;;;;;5086899;28;20048;-80
2022/05/30 12:55:49;;;;;;;2.10;1.10;;;;;;;;;;5067571;28;20475;-79
2022/05/30 12:58:39;;;;;;;2.05;1.00;;;;;;;;;;5106720;28;20634;-75
2022/05/30 13:01:19;;;;;;;3.17;1.20;;;;;;;;;;5110571;28;20445;-79
2022/05/30 13:04:02;;;;;;;3.85;1.20;;;;;;;;;;5083068;28;20089;-74
2022/05/30 13:06:30;;;;;;;2.30;1.08;;;;;;;;;;5099225;28;20454;-85
2022/05/30 13:09:02;;;;;;;3.08;1.20;;;;;;;;;;5077917;28;20098;-76
2022/05/30 13:11:41;;;;;;;2.45;1.20;;;;;;;;;;5104751;28;20089;-75
2022/05/30 13:14:21;;;;;;;4.07;1.30;;;;;;;;;;5095075;28;20054;-75
2022/05/30 13:16:48;;;;;;;3.13;1.33;;;;;;;;;;5091385;28;20371;-75
2022/05/30 13:19:16;;;;;;;3.35;1.30;;;;;;;;;;5091527;28;20047;-75
2022/05/30 13:21:48;;;;;;;2.08;1.25;;;;;;;;;;5087016;28;20101;-76
2022/05/30 13:24:30;;;;;;;5.03;1.50;;;;;;;;;;5097069;28;20039;-84
2022/05/30 13:26:56;;;;;;;3.58;1.30;;;;;;;;;;5092069;28;20566;-83
2022/05/30 13:29:30;;;;;;;3.83;1.50;;;;;;;;;;5089038;28;20069;-80
2022/05/30 13:31:56;;;;;;;3.63;1.48;;;;;;;;;;5086841;28;20119;-79
2022/05/30 13:34:24;;;;;;;2.20;1.33;;;;;;;;;;5094198;28;20128;-79
2022/05/30 13:36:51;;;;;;;4.32;1.50;;;;;;;;;;5074287;28;20302;-81
2022/05/30 13:39:17;;;;;;;2.40;1.50;;;;;;;;;;5092745;28;20039;-80
2022/05/30 13:41:43;;;;;;;4.05;1.83;;;;;;;;;;5093504;28;20075;-76
2022/05/30 13:44:15;;;;;;;4.68;1.92;;;;;;;;;;5108405;28;20517;-75
2022/05/30 13:46:44;;;;;;;3.10;1.42;;;;;;;;;;5091996;28;20097;-74
2022/05/30 13:49:10;;;;;;;3.88;1.77;;;;;;;;;;5104754;28;20527;-79
2022/05/30 13:51:44;;;;;;;5.38;1.73;;;;;;;;;;5095120;28;20039;-82
2022/05/30 13:54:11;;;;;;;4.63;1.58;;;;;;;;;;5078064;28;20028;-72
2022/05/30 13:56:45;;;;;;;3.55;1.30;;;;;;;;;;5103603;28;20126;-72
2022/05/30 13:59:30;;;;;;;2.03;1.50;;;;;;;;;;5092539;28;20411;-77
2022/05/30 14:02:14;;;;;;;2.85;1.70;;;;;;;;;;5079355;28;20430;-76
2022/05/30 14:04:41;;;;;;;5.13;1.57;;;;;;;;;;5090352;28;20302;-82
2022/05/30 14:07:22;;;;;;;3.78;1.48;;;;;;;;;;5088499;28;20085;-81
2022/05/30 14:09:49;;;;;;;3.60;1.63;;;;;;;;;;5088981;28;20044;-74
2022/05/30 14:12:15;;;;;;;8.25;1.92;;;;;;;;;;5104434;28;20039;-73
2022/05/30 14:14:43;;;;;;;3.45;1.80;;;;;;;;;;5088868;28;20385;-73
2022/05/30 14:17:10;;;;;;;3.83;1.63;;;;;;;;;;5096261;28;20044;-73
2022/05/30 14:19:38;;;;;;;3.80;1.40;;;;;;;;;;5094614;28;20047;-74
2022/05/30 14:22:14;;;;;;;2.95;1.52;;;;;;;;;;5104777;28;20050;-73
2022/05/30 14:24:51;;;;;;;5.03;1.63;;;;;;;;;;5077860;28;20048;-75
2022/05/30 14:27:22;;;;;;;4.15;1.52;;;;;;;;;;5109392;28;20512;-74
2022/05/30 14:29:49;;;;;;;5.30;1.70;;;;;;;;;;5096595;28;20032;-74
2022/05/30 14:32:21;;;;;;;5.78;1.55;;;;;;;;;;5111417;28;20040;-73
2022/05/30 14:35:03;;;;;;;7.75;1.88;;;;;;;;;;5113917;28;20463;-74
2022/05/30 14:37:59;;;;;;;6.38;1.77;;;;;;;;;;5100733;28;20491;-75
2022/05/30 14:40:46;;;;;;;5.82;1.85;;;;;;;;;;5080887;28;20043;-76
2022/05/30 14:43:28;;;;;;;7.30;2.35;;;;;;;;;;5102378;28;20093;-75
2022/05/30 14:46:23;;;;;;;7.40;1.80;;;;;;;;;;5110785;28;20039;-76
2022/05/30 14:48:51;;;;;;;3.50;1.65;;;;;;;;;;5084515;28;20135;-76
2022/05/30 14:51:23;;;;;;;4.78;1.88;;;;;;;;;;5104034;28;20118;-76
2022/05/30 14:53:51;;;;;;;3.80;1.60;;;;;;;;;;5109798;28;20040;-75
2022/05/30 14:56:21;;;;;;;4.43;1.90;;;;;;;;;;5096489;28;20428;-75
2022/05/30 14:58:58;;;;;;;5.03;2.03;;;;;;;;;;5101032;28;20119;-74
2022/05/30 15:01:25;;;;;;;4.05;2.35;;;;;;;;;;5106878;28;20214;-75
2022/05/30 15:04:09;;;;;;;3.55;1.73;;;;;;;;;;5090617;28;20262;-75
2022/05/30 15:06:37;;;;;;;6.55;2.17;;;;;;;;;;5100236;28;20071;-76
2022/05/30 15:09:04;;;;;;;4.00;2.00;;;;;;;;;;5102821;27;20079;-75
2022/05/30 15:11:31;;;;;;;5.88;2.22;;;;;;;;;;5096770;28;20486;-76
2022/05/30 15:14:03;;;;;;;18.17;5.78;;;;;;;;;;5099364;27;20209;-75
2022/05/30 15:16:36;;;;;;;8.18;3.30;;;;;;;;;;5093903;28;20043;-75
2022/05/30 15:19:03;;;;;;;10.80;4.60;;;;;;;;;;5079126;28;20486;-75
2022/05/30 15:21:31;;;;;;;6.65;3.40;;;;;;;;;;5110826;27;20054;-75